Etusivu
METAR-TAF:

METAR-TAF

Lentoasemat :

Amman, Jordania

Leveyspiiri: 31-59N, Pituuspiiri: 035-59E, korkeus merenpinnasta: 767 m

Tämänhetkinen sää

Tämä raportti tehtiin 1 tunti ja 6 minuuttia sitten, kello 18.00 UTC
Tuuli 8 kn luoteesta
Lämpötila 23°C
Kosteus 57%
Ilmanpaine 1014 hPa
Näkyvyys: 8000 m

METAR: OJAM 231800Z 32008KT 8000 NSC 23/14 Q1014 NOSIG

Aika: 22:06 (19:06 UTC)

Sääennuste

Tämä raportti tehtiin 14 tuntia ja 6 minuuttia sitten, kello 05.00 UTC
Ennuste voimassa 23. päivästä klo 06 UTC - 24. päivään klo 12 UTC
Tuuli 10 kn lännestä
Näkyvyys: 5000 m
Muutamia pilviä 3000 ft:n korkeudessa
usvaa
Ajoittain
24. päivästä klo 02 UTC - 24. päivään klo 06 UTC
Tuuli 2 kn eri suunnista

TAF: OJAM 230500Z 2306/2412 28010KT 5000 HZ FEW030 TEMPO 2402/2406 VRB02KT

Säähavainnot ja -ennusteet yli 4000 lentoasemalta (METAR- ja TAF-raportit).

Käytössä olevat sääasemat on merkitty karttaan keltaisilla ja punaisilla pisteillä.

Aseta hiiri pisteen päälle nähdäksesi sääaseman nimen.

Klikkaa sitten nähdäksesi säähavainnot ja -ennusteet.

Kartan vaihtaminen: klikkaa mustalla rastilla varustettuja vihreitä pisteitä, niin voit zoomata sisään; viivalla varustettua vihreää pistettä, niin voit zoomata ulos tai vihreitä nuolia, niin pääset viereisille kartoille.


METAR-TAF: